sensor_id;sensor_type;location;lat;lon;timestamp;pressure;altitude;pressure_sealevel;temperature;humidity
55424;BME280;41294;42.666;23.350;2022-08-06T00:01:48;94862.28;;;21.45;77.08
55424;BME280;41294;42.666;23.350;2022-08-06T00:04:14;94856.38;;;21.34;78.35
55424;BME280;41294;42.666;23.350;2022-08-06T00:06:39;94862.13;;;21.38;78.02
55424;BME280;41294;42.666;23.350;2022-08-06T00:09:05;94870.44;;;21.21;78.90
55424;BME280;41294;42.666;23.350;2022-08-06T00:11:30;94865.13;;;21.16;79.98
55424;BME280;41294;42.666;23.350;2022-08-06T00:13:56;94866.28;;;21.20;79.37
55424;BME280;41294;42.666;23.350;2022-08-06T00:16:21;94870.03;;;21.12;80.20
55424;BME280;41294;42.666;23.350;2022-08-06T00:18:47;94872.59;;;21.23;79.83
55424;BME280;41294;42.666;23.350;2022-08-06T00:21:12;94869.84;;;21.28;79.27
55424;BME280;41294;42.666;23.350;2022-08-06T00:23:38;94873.81;;;21.22;79.57
55424;BME280;41294;42.666;23.350;2022-08-06T00:26:03;94871.44;;;21.18;79.54
55424;BME280;41294;42.666;23.350;2022-08-06T00:28:29;94871.94;;;21.17;79.61
55424;BME280;41294;42.666;23.350;2022-08-06T00:30:54;94871.88;;;21.22;79.74
55424;BME280;41294;42.666;23.350;2022-08-06T00:33:19;94870.78;;;21.31;79.17
55424;BME280;41294;42.666;23.350;2022-08-06T00:35:45;94870.34;;;21.27;79.35
55424;BME280;41294;42.666;23.350;2022-08-06T00:38:10;94871.88;;;21.22;79.33
55424;BME280;41294;42.666;23.350;2022-08-06T00:40:36;94878.22;;;21.19;79.45
55424;BME280;41294;42.666;23.350;2022-08-06T00:43:03;94871.72;;;21.15;79.58
55424;BME280;41294;42.666;23.350;2022-08-06T00:45:33;94879.97;;;21.17;79.66
55424;BME280;41294;42.666;23.350;2022-08-06T00:48:00;94877.00;;;21.02;80.14
55424;BME280;41294;42.666;23.350;2022-08-06T00:50:25;94874.19;;;20.94;80.82
55424;BME280;41294;42.666;23.350;2022-08-06T00:52:51;94869.69;;;21.02;80.31
55424;BME280;41294;42.666;23.350;2022-08-06T00:55:16;94874.03;;;21.05;80.08
55424;BME280;41294;42.666;23.350;2022-08-06T00:57:42;94865.06;;;21.03;80.18
55424;BME280;41294;42.666;23.350;2022-08-06T01:00:08;94877.66;;;21.08;79.51
55424;BME280;41294;42.666;23.350;2022-08-06T01:02:34;94876.13;;;20.94;80.16
55424;BME280;41294;42.666;23.350;2022-08-06T01:05:00;94881.63;;;21.01;80.02
55424;BME280;41294;42.666;23.350;2022-08-06T01:07:25;94875.97;;;20.86;80.57
55424;BME280;41294;42.666;23.350;2022-08-06T01:09:50;94877.03;;;20.78;81.69
55424;BME280;41294;42.666;23.350;2022-08-06T01:12:16;94870.69;;;20.81;81.72
55424;BME280;41294;42.666;23.350;2022-08-06T01:14:42;94869.69;;;20.84;81.68
55424;BME280;41294;42.666;23.350;2022-08-06T01:17:17;94869.25;;;20.80;82.17
55424;BME280;41294;42.666;23.350;2022-08-06T01:19:58;94864.22;;;20.71;82.86
55424;BME280;41294;42.666;23.350;2022-08-06T01:28:47;94863.34;;;20.63;83.50
55424;BME280;41294;42.666;23.350;2022-08-06T01:31:22;94868.09;;;20.70;83.06
55424;BME280;41294;42.666;23.350;2022-08-06T01:33:56;94860.81;;;20.70;83.25
55424;BME280;41294;42.666;23.350;2022-08-06T01:36:38;94865.88;;;20.74;82.83
55424;BME280;41294;42.666;23.350;2022-08-06T01:39:04;94861.53;;;20.71;82.82
55424;BME280;41294;42.666;23.350;2022-08-06T01:41:40;94865.00;;;20.66;83.10
55424;BME280;41294;42.666;23.350;2022-08-06T01:44:12;94863.22;;;20.50;83.95
55424;BME280;41294;42.666;23.350;2022-08-06T01:46:50;94864.63;;;20.57;83.43
55424;BME280;41294;42.666;23.350;2022-08-06T01:49:23;94867.34;;;20.51;83.24
55424;BME280;41294;42.666;23.350;2022-08-06T01:51:51;94861.78;;;20.49;83.21
55424;BME280;41294;42.666;23.350;2022-08-06T01:54:18;94859.66;;;20.42;84.07
55424;BME280;41294;42.666;23.350;2022-08-06T01:56:46;94856.41;;;20.49;83.67
55424;BME280;41294;42.666;23.350;2022-08-06T01:59:15;94852.72;;;20.34;84.43
55424;BME280;41294;42.666;23.350;2022-08-06T02:01:43;94850.19;;;20.41;84.01
55424;BME280;41294;42.666;23.350;2022-08-06T02:04:12;94850.19;;;20.17;85.44
55424;BME280;41294;42.666;23.350;2022-08-06T02:06:42;94842.72;;;20.34;85.06
55424;BME280;41294;42.666;23.350;2022-08-06T02:09:12;94855.81;;;20.38;84.78
55424;BME280;41294;42.666;23.350;2022-08-06T02:11:40;94850.75;;;20.34;85.22
55424;BME280;41294;42.666;23.350;2022-08-06T02:14:09;94847.41;;;20.28;85.00
55424;BME280;41294;42.666;23.350;2022-08-06T02:16:37;94844.97;;;20.30;85.04
55424;BME280;41294;42.666;23.350;2022-08-06T02:19:05;94837.72;;;20.25;85.19
55424;BME280;41294;42.666;23.350;2022-08-06T02:21:33;94834.81;;;20.23;85.61
55424;BME280;41294;42.666;23.350;2022-08-06T02:24:02;94837.56;;;20.18;85.71
55424;BME280;41294;42.666;23.350;2022-08-06T02:26:30;94834.44;;;20.14;86.21
55424;BME280;41294;42.666;23.350;2022-08-06T02:29:03;94830.38;;;20.07;86.37
55424;BME280;41294;42.666;23.350;2022-08-06T02:31:29;94833.25;;;20.09;86.31
55424;BME280;41294;42.666;23.350;2022-08-06T02:33:55;94832.91;;;19.94;86.75
55424;BME280;41294;42.666;23.350;2022-08-06T02:36:41;94831.91;;;19.97;86.58
55424;BME280;41294;42.666;23.350;2022-08-06T02:39:16;94839.16;;;20.02;86.75
55424;BME280;41294;42.666;23.350;2022-08-06T02:42:01;94838.00;;;19.98;86.74
55424;BME280;41294;42.666;23.350;2022-08-06T02:44:58;94839.16;;;20.02;86.43
55424;BME280;41294;42.666;23.350;2022-08-06T02:50:16;94842.13;;;19.93;87.00
55424;BME280;41294;42.666;23.350;2022-08-06T02:52:54;94844.81;;;19.93;86.83
55424;BME280;41294;42.666;23.350;2022-08-06T02:55:24;94838.72;;;19.93;87.12
55424;BME280;41294;42.666;23.350;2022-08-06T02:57:52;94843.34;;;19.92;86.97
55424;BME280;41294;42.666;23.350;2022-08-06T03:00:20;94849.25;;;19.85;87.32
55424;BME280;41294;42.666;23.350;2022-08-06T03:02:48;94849.94;;;19.91;87.08
55424;BME280;41294;42.666;23.350;2022-08-06T03:05:17;94851.13;;;19.96;86.93
55424;BME280;41294;42.666;23.350;2022-08-06T03:07:44;94855.41;;;19.75;87.57
55424;BME280;41294;42.666;23.350;2022-08-06T03:10:12;94861.44;;;19.81;88.24
55424;BME280;41294;42.666;23.350;2022-08-06T03:12:40;94863.84;;;19.84;87.74
55424;BME280;41294;42.666;23.350;2022-08-06T03:15:08;94861.91;;;19.80;88.03
55424;BME280;41294;42.666;23.350;2022-08-06T03:17:36;94857.66;;;19.66;88.50
55424;BME280;41294;42.666;23.350;2022-08-06T03:20:03;94862.75;;;19.69;88.68
55424;BME280;41294;42.666;23.350;2022-08-06T03:22:31;94870.88;;;19.53;90.13
55424;BME280;41294;42.666;23.350;2022-08-06T03:24:59;94861.56;;;19.65;89.29
55424;BME280;41294;42.666;23.350;2022-08-06T03:27:25;94870.22;;;19.76;89.19
55424;BME280;41294;42.666;23.350;2022-08-06T03:29:52;94854.88;;;19.82;88.60
55424;BME280;41294;42.666;23.350;2022-08-06T03:32:19;94865.50;;;19.87;88.11
55424;BME280;41294;42.666;23.350;2022-08-06T03:34:46;94867.72;;;19.83;88.10
55424;BME280;41294;42.666;23.350;2022-08-06T03:37:13;94857.72;;;19.89;87.98
55424;BME280;41294;42.666;23.350;2022-08-06T03:39:42;94855.53;;;20.17;87.00
55424;BME280;41294;42.666;23.350;2022-08-06T03:42:08;94860.41;;;20.43;85.88
55424;BME280;41294;42.666;23.350;2022-08-06T03:44:34;94860.53;;;20.74;84.28
55424;BME280;41294;42.666;23.350;2022-08-06T03:47:27;94864.31;;;21.21;82.21
55424;BME280;41294;42.666;23.350;2022-08-06T03:52:40;94858.75;;;21.87;77.72
55424;BME280;41294;42.666;23.350;2022-08-06T03:55:08;94860.53;;;21.48;79.34
55424;BME280;41294;42.666;23.350;2022-08-06T03:57:39;94864.63;;;21.98;77.30
55424;BME280;41294;42.666;23.350;2022-08-06T04:00:08;94861.25;;;22.68;74.20
55424;BME280;41294;42.666;23.350;2022-08-06T04:02:38;94863.00;;;23.24;72.10
55424;BME280;41294;42.666;23.350;2022-08-06T04:05:05;94873.44;;;23.61;70.54
55424;BME280;41294;42.666;23.350;2022-08-06T04:07:31;94870.72;;;23.95;68.94
55424;BME280;41294;42.666;23.350;2022-08-06T04:09:58;94876.59;;;24.34;67.49
55424;BME280;41294;42.666;23.350;2022-08-06T04:12:25;94875.97;;;24.48;66.78
55424;BME280;41294;42.666;23.350;2022-08-06T04:14:52;94872.44;;;24.89;64.95
55424;BME280;41294;42.666;23.350;2022-08-06T04:17:19;94880.50;;;25.16;64.48
55424;BME280;41294;42.666;23.350;2022-08-06T04:19:46;94888.38;;;25.57;63.16
55424;BME280;41294;42.666;23.350;2022-08-06T04:22:13;94885.75;;;25.80;62.57
55424;BME280;41294;42.666;23.350;2022-08-06T04:24:39;94887.56;;;26.07;60.93
55424;BME280;41294;42.666;23.350;2022-08-06T04:27:06;94881.28;;;26.27;60.48
55424;BME280;41294;42.666;23.350;2022-08-06T04:29:35;94881.47;;;26.44;59.84
55424;BME280;41294;42.666;23.350;2022-08-06T04:32:02;94883.91;;;26.86;58.89
55424;BME280;41294;42.666;23.350;2022-08-06T04:34:29;94881.69;;;27.15;57.43
55424;BME280;41294;42.666;23.350;2022-08-06T04:36:58;94882.91;;;27.92;55.70
55424;BME280;41294;42.666;23.350;2022-08-06T04:39:23;94888.03;;;28.54;54.25
55424;BME280;41294;42.666;23.350;2022-08-06T04:41:50;94892.94;;;28.72;53.34
55424;BME280;41294;42.666;23.350;2022-08-06T04:44:16;94897.53;;;28.45;53.95
55424;BME280;41294;42.666;23.350;2022-08-06T04:46:42;94901.97;;;28.50;54.35
55424;BME280;41294;42.666;23.350;2022-08-06T04:49:16;94891.81;;;28.75;53.03
55424;BME280;41294;42.666;23.350;2022-08-06T04:51:46;94887.38;;;29.21;52.38
55424;BME280;41294;42.666;23.350;2022-08-06T04:54:13;94894.69;;;29.45;52.14
55424;BME280;41294;42.666;23.350;2022-08-06T04:56:39;94889.28;;;29.11;50.58
55424;BME280;41294;42.666;23.350;2022-08-06T04:59:05;94896.88;;;29.29;50.41
55424;BME280;41294;42.666;23.350;2022-08-06T05:01:31;94897.41;;;29.28;50.37
55424;BME280;41294;42.666;23.350;2022-08-06T05:03:56;94904.47;;;28.80;50.20
55424;BME280;41294;42.666;23.350;2022-08-06T05:09:17;94901.00;;;28.97;50.04
55424;BME280;41294;42.666;23.350;2022-08-06T05:11:48;94899.31;;;29.18;48.62
55424;BME280;41294;42.666;23.350;2022-08-06T05:14:20;94903.81;;;29.06;48.44
55424;BME280;41294;42.666;23.350;2022-08-06T05:16:51;94903.34;;;29.00;48.90
55424;BME280;41294;42.666;23.350;2022-08-06T05:19:21;94906.59;;;29.76;47.87
55424;BME280;41294;42.666;23.350;2022-08-06T05:21:50;94899.41;;;29.44;47.64
55424;BME280;41294;42.666;23.350;2022-08-06T05:24:17;94904.75;;;29.35;46.99
55424;BME280;41294;42.666;23.350;2022-08-06T05:26:43;94898.72;;;29.44;47.22
55424;BME280;41294;42.666;23.350;2022-08-06T05:29:09;94897.47;;;29.81;46.63
55424;BME280;41294;42.666;23.350;2022-08-06T05:31:37;94901.97;;;30.67;44.99
55424;BME280;41294;42.666;23.350;2022-08-06T05:34:06;94900.91;;;30.43;44.76
55424;BME280;41294;42.666;23.350;2022-08-06T05:36:34;94904.84;;;30.69;45.67
55424;BME280;41294;42.666;23.350;2022-08-06T05:38:59;94898.56;;;30.76;44.49
55424;BME280;41294;42.666;23.350;2022-08-06T05:41:26;94905.16;;;30.82;43.97
55424;BME280;41294;42.666;23.350;2022-08-06T05:43:51;94910.63;;;31.29;43.84
55424;BME280;41294;42.666;23.350;2022-08-06T05:46:20;94910.00;;;31.87;42.87
55424;BME280;41294;42.666;23.350;2022-08-06T05:51:27;94900.44;;;32.47;41.22
55424;BME280;41294;42.666;23.350;2022-08-06T05:54:17;94905.63;;;32.03;41.41
55424;BME280;41294;42.666;23.350;2022-08-06T05:56:46;94899.91;;;31.99;40.97
55424;BME280;41294;42.666;23.350;2022-08-06T05:59:24;94895.25;;;32.21;41.10
55424;BME280;41294;42.666;23.350;2022-08-06T06:01:51;94894.38;;;32.28;40.91
55424;BME280;41294;42.666;23.350;2022-08-06T06:04:18;94888.66;;;31.75;41.23
55424;BME280;41294;42.666;23.350;2022-08-06T06:06:43;94897.31;;;31.24;42.47
55424;BME280;41294;42.666;23.350;2022-08-06T06:09:09;94895.41;;;30.24;44.60
55424;BME280;41294;42.666;23.350;2022-08-06T06:11:36;94891.81;;;30.67;43.89
55424;BME280;41294;42.666;23.350;2022-08-06T06:14:04;94889.13;;;29.09;47.17
55424;BME280;41294;42.666;23.350;2022-08-06T06:19:34;94881.47;;;30.11;45.12
55424;BME280;41294;42.666;23.350;2022-08-06T06:35:23;94886.44;;;31.05;43.13
55424;BME280;41294;42.666;23.350;2022-08-06T06:40:32;94872.91;;;31.64;42.70
55424;BME280;41294;42.666;23.350;2022-08-06T06:43:05;94874.75;;;31.80;42.32
55424;BME280;41294;42.666;23.350;2022-08-06T06:45:42;94870.94;;;33.06;39.79
55424;BME280;41294;42.666;23.350;2022-08-06T06:48:20;94865.91;;;33.56;38.40
55424;BME280;41294;42.666;23.350;2022-08-06T06:50:50;94863.31;;;33.58;38.22
55424;BME280;41294;42.666;23.350;2022-08-06T06:53:17;94862.56;;;33.57;38.60
55424;BME280;41294;42.666;23.350;2022-08-06T06:55:49;94855.75;;;33.91;38.03
55424;BME280;41294;42.666;23.350;2022-08-06T06:58:21;94863.28;;;34.47;36.98
55424;BME280;41294;42.666;23.350;2022-08-06T07:00:50;94862.25;;;34.89;36.76
55424;BME280;41294;42.666;23.350;2022-08-06T07:03:18;94861.78;;;34.81;36.95
55424;BME280;41294;42.666;23.350;2022-08-06T07:05:46;94858.22;;;35.26;35.84
55424;BME280;41294;42.666;23.350;2022-08-06T07:08:15;94856.47;;;35.44;35.36
55424;BME280;41294;42.666;23.350;2022-08-06T07:10:43;94858.63;;;35.84;35.11
55424;BME280;41294;42.666;23.350;2022-08-06T07:13:10;94858.19;;;35.76;35.14
55424;BME280;41294;42.666;23.350;2022-08-06T07:15:38;94860.25;;;35.75;35.15
55424;BME280;41294;42.666;23.350;2022-08-06T07:18:06;94852.81;;;36.16;34.86
55424;BME280;41294;42.666;23.350;2022-08-06T07:20:33;94849.84;;;36.12;35.10
55424;BME280;41294;42.666;23.350;2022-08-06T07:23:05;94843.38;;;36.19;34.04
55424;BME280;41294;42.666;23.350;2022-08-06T07:25:36;94837.03;;;36.03;34.72
55424;BME280;41294;42.666;23.350;2022-08-06T07:28:04;94836.34;;;36.03;35.02
55424;BME280;41294;42.666;23.350;2022-08-06T07:30:30;94827.09;;;36.50;34.37
55424;BME280;41294;42.666;23.350;2022-08-06T07:32:58;94834.06;;;35.86;35.27
55424;BME280;41294;42.666;23.350;2022-08-06T07:35:24;94833.25;;;35.83;35.69
55424;BME280;41294;42.666;23.350;2022-08-06T07:40:32;94820.69;;;36.05;35.36
55424;BME280;41294;42.666;23.350;2022-08-06T07:45:32;94817.56;;;36.24;35.32
55424;BME280;41294;42.666;23.350;2022-08-06T07:48:00;94813.69;;;36.02;35.16
55424;BME280;41294;42.666;23.350;2022-08-06T07:50:29;94817.47;;;35.07;37.41
55424;BME280;41294;42.666;23.350;2022-08-06T07:52:57;94812.31;;;35.13;37.19
55424;BME280;41294;42.666;23.350;2022-08-06T07:55:25;94820.34;;;35.47;37.30
55424;BME280;41294;42.666;23.350;2022-08-06T07:57:56;94814.56;;;35.80;36.43
55424;BME280;41294;42.666;23.350;2022-08-06T08:00:25;94813.03;;;35.14;36.88
55424;BME280;41294;42.666;23.350;2022-08-06T08:02:52;94808.38;;;34.09;38.76
55424;BME280;41294;42.666;23.350;2022-08-06T08:05:37;94812.72;;;34.96;38.48
55424;BME280;41294;42.666;23.350;2022-08-06T08:08:23;94823.03;;;35.59;36.73
55424;BME280;41294;42.666;23.350;2022-08-06T08:10:49;94807.94;;;35.08;37.91
55424;BME280;41294;42.666;23.350;2022-08-06T08:13:16;94816.50;;;34.55;38.46
55424;BME280;41294;42.666;23.350;2022-08-06T08:15:45;94808.47;;;34.11;39.05
55424;BME280;41294;42.666;23.350;2022-08-06T08:18:11;94811.59;;;34.76;38.47
55424;BME280;41294;42.666;23.350;2022-08-06T08:20:38;94816.69;;;35.81;37.30
55424;BME280;41294;42.666;23.350;2022-08-06T08:23:05;94809.94;;;36.49;35.82
55424;BME280;41294;42.666;23.350;2022-08-06T08:25:32;94814.56;;;36.74;34.79
55424;BME280;41294;42.666;23.350;2022-08-06T08:27:58;94814.66;;;35.19;36.41
55424;BME280;41294;42.666;23.350;2022-08-06T08:30:24;94809.34;;;34.73;36.67
55424;BME280;41294;42.666;23.350;2022-08-06T08:32:50;94805.00;;;34.93;36.58
55424;BME280;41294;42.666;23.350;2022-08-06T08:35:15;94808.03;;;35.60;35.60
55424;BME280;41294;42.666;23.350;2022-08-06T08:37:41;94806.88;;;36.03;35.52
55424;BME280;41294;42.666;23.350;2022-08-06T08:40:07;94802.72;;;35.64;36.15
55424;BME280;41294;42.666;23.350;2022-08-06T08:42:46;94803.47;;;33.73;37.10
55424;BME280;41294;42.666;23.350;2022-08-06T08:45:13;94809.66;;;33.85;36.66
55424;BME280;41294;42.666;23.350;2022-08-06T08:47:44;94811.34;;;33.03;37.89
55424;BME280;41294;42.666;23.350;2022-08-06T08:50:11;94800.94;;;33.54;37.91
55424;BME280;41294;42.666;23.350;2022-08-06T08:52:39;94800.75;;;34.78;35.74
55424;BME280;41294;42.666;23.350;2022-08-06T08:55:11;94802.44;;;35.08;34.97
55424;BME280;41294;42.666;23.350;2022-08-06T08:57:38;94811.50;;;34.74;35.70
55424;BME280;41294;42.666;23.350;2022-08-06T09:00:05;94798.25;;;34.00;36.58
55424;BME280;41294;42.666;23.350;2022-08-06T09:02:31;94804.03;;;34.52;35.86
55424;BME280;41294;42.666;23.350;2022-08-06T09:04:58;94797.06;;;35.35;33.42
55424;BME280;41294;42.666;23.350;2022-08-06T09:07:23;94804.47;;;34.71;34.13
55424;BME280;41294;42.666;23.350;2022-08-06T09:09:50;94800.88;;;34.10;35.64
55424;BME280;41294;42.666;23.350;2022-08-06T09:12:16;94795.09;;;34.63;35.72
55424;BME280;41294;42.666;23.350;2022-08-06T09:14:42;94786.84;;;35.11;32.89
55424;BME280;41294;42.666;23.350;2022-08-06T09:17:09;94794.44;;;35.12;33.55
55424;BME280;41294;42.666;23.350;2022-08-06T09:19:35;94793.81;;;34.41;34.12
55424;BME280;41294;42.666;23.350;2022-08-06T09:22:00;94790.94;;;33.04;35.24
55424;BME280;41294;42.666;23.350;2022-08-06T09:24:27;94788.22;;;33.04;35.90
55424;BME280;41294;42.666;23.350;2022-08-06T09:27:17;94784.00;;;33.90;34.98
55424;BME280;41294;42.666;23.350;2022-08-06T09:29:52;94780.38;;;34.34;34.00
55424;BME280;41294;42.666;23.350;2022-08-06T09:35:02;94771.56;;;33.32;36.24
55424;BME280;41294;42.666;23.350;2022-08-06T09:37:28;94774.91;;;34.56;34.22
55424;BME280;41294;42.666;23.350;2022-08-06T09:39:54;94776.91;;;32.98;35.47
55424;BME280;41294;42.666;23.350;2022-08-06T09:42:40;94773.16;;;33.92;35.28
55424;BME280;41294;42.666;23.350;2022-08-06T09:45:10;94778.97;;;34.21;33.71
55424;BME280;41294;42.666;23.350;2022-08-06T09:47:36;94774.50;;;33.91;33.91
55424;BME280;41294;42.666;23.350;2022-08-06T09:50:04;94774.09;;;34.79;33.34
55424;BME280;41294;42.666;23.350;2022-08-06T09:52:30;94767.34;;;33.63;34.88
55424;BME280;41294;42.666;23.350;2022-08-06T09:54:55;94764.50;;;33.84;34.59
55424;BME280;41294;42.666;23.350;2022-08-06T09:57:22;94764.91;;;33.24;35.32
55424;BME280;41294;42.666;23.350;2022-08-06T09:59:48;94763.66;;;33.48;35.59
55424;BME280;41294;42.666;23.350;2022-08-06T10:02:15;94777.25;;;34.62;34.46
55424;BME280;41294;42.666;23.350;2022-08-06T10:04:43;94771.03;;;34.73;33.95
55424;BME280;41294;42.666;23.350;2022-08-06T10:07:09;94771.69;;;35.34;32.33
55424;BME280;41294;42.666;23.350;2022-08-06T10:09:35;94750.47;;;34.24;33.24
55424;BME280;41294;42.666;23.350;2022-08-06T10:12:16;94757.28;;;34.84;32.58
55424;BME280;41294;42.666;23.350;2022-08-06T10:14:42;94761.75;;;35.93;32.05
55424;BME280;41294;42.666;23.350;2022-08-06T10:17:15;94745.72;;;36.14;32.33
55424;BME280;41294;42.666;23.350;2022-08-06T10:19:47;94757.47;;;36.57;30.88
55424;BME280;41294;42.666;23.350;2022-08-06T10:22:16;94748.31;;;36.39;30.53
55424;BME280;41294;42.666;23.350;2022-08-06T10:24:48;94752.41;;;36.80;30.61
55424;BME280;41294;42.666;23.350;2022-08-06T10:27:17;94740.34;;;36.72;30.04
55424;BME280;41294;42.666;23.350;2022-08-06T10:29:51;94743.75;;;37.14;30.10
55424;BME280;41294;42.666;23.350;2022-08-06T10:32:23;94744.88;;;37.38;30.31
55424;BME280;41294;42.666;23.350;2022-08-06T10:34:51;94744.00;;;37.65;30.38
55424;BME280;41294;42.666;23.350;2022-08-06T10:37:18;94732.63;;;37.72;29.79
55424;BME280;41294;42.666;23.350;2022-08-06T10:39:47;94738.31;;;37.91;29.50
55424;BME280;41294;42.666;23.350;2022-08-06T10:42:14;94731.09;;;38.15;29.39
55424;BME280;41294;42.666;23.350;2022-08-06T10:44:39;94732.97;;;38.11;29.09
55424;BME280;41294;42.666;23.350;2022-08-06T10:47:05;94729.78;;;38.01;29.06
55424;BME280;41294;42.666;23.350;2022-08-06T10:49:33;94725.50;;;37.05;30.56
55424;BME280;41294;42.666;23.350;2022-08-06T10:51:58;94726.47;;;37.27;30.56
55424;BME280;41294;42.666;23.350;2022-08-06T10:54:25;94732.56;;;35.07;31.65
55424;BME280;41294;42.666;23.350;2022-08-06T10:56:51;94733.22;;;33.42;34.61
55424;BME280;41294;42.666;23.350;2022-08-06T10:59:19;94721.91;;;34.27;33.95
55424;BME280;41294;42.666;23.350;2022-08-06T11:04:38;94728.44;;;33.19;35.24
55424;BME280;41294;42.666;23.350;2022-08-06T11:13:25;94718.59;;;35.93;32.22
55424;BME280;41294;42.666;23.350;2022-08-06T11:15:53;94714.91;;;36.29;31.46
55424;BME280;41294;42.666;23.350;2022-08-06T11:18:20;94716.44;;;35.65;30.86
55424;BME280;41294;42.666;23.350;2022-08-06T11:20:50;94715.56;;;34.36;31.59
55424;BME280;41294;42.666;23.350;2022-08-06T11:25:45;94704.25;;;33.48;32.32
55424;BME280;41294;42.666;23.350;2022-08-06T11:28:16;94700.31;;;33.97;33.20
55424;BME280;41294;42.666;23.350;2022-08-06T11:33:10;94706.44;;;34.93;32.90
55424;BME280;41294;42.666;23.350;2022-08-06T11:38:01;94702.97;;;35.82;31.49
55424;BME280;41294;42.666;23.350;2022-08-06T11:40:27;94703.38;;;35.90;31.37
55424;BME280;41294;42.666;23.350;2022-08-06T11:42:53;94712.53;;;36.08;30.91
55424;BME280;41294;42.666;23.350;2022-08-06T11:45:19;94705.25;;;36.41;31.43
55424;BME280;41294;42.666;23.350;2022-08-06T11:48:10;94716.28;;;34.73;32.01
55424;BME280;41294;42.666;23.350;2022-08-06T11:50:38;94714.81;;;33.99;33.22
55424;BME280;41294;42.666;23.350;2022-08-06T11:53:03;94707.44;;;34.13;32.62
55424;BME280;41294;42.666;23.350;2022-08-06T11:55:29;94704.16;;;33.80;33.28
55424;BME280;41294;42.666;23.350;2022-08-06T12:00:55;94703.66;;;34.07;33.99
55424;BME280;41294;42.666;23.350;2022-08-06T12:03:40;94694.75;;;32.50;34.97
55424;BME280;41294;42.666;23.350;2022-08-06T12:06:22;94698.19;;;33.15;35.06
55424;BME280;41294;42.666;23.350;2022-08-06T12:09:07;94682.69;;;32.97;34.57
55424;BME280;41294;42.666;23.350;2022-08-06T12:11:33;94683.03;;;32.91;35.50
55424;BME280;41294;42.666;23.350;2022-08-06T12:14:00;94693.69;;;33.65;34.60
55424;BME280;41294;42.666;23.350;2022-08-06T12:16:34;94690.13;;;33.86;34.33
55424;BME280;41294;42.666;23.350;2022-08-06T12:19:02;94690.22;;;33.88;33.70
55424;BME280;41294;42.666;23.350;2022-08-06T12:21:29;94696.88;;;33.16;34.48
55424;BME280;41294;42.666;23.350;2022-08-06T12:23:54;94685.38;;;33.29;34.10
55424;BME280;41294;42.666;23.350;2022-08-06T12:26:20;94692.84;;;33.52;34.56
55424;BME280;41294;42.666;23.350;2022-08-06T12:28:48;94690.50;;;33.69;33.74
55424;BME280;41294;42.666;23.350;2022-08-06T12:31:34;94691.78;;;33.79;32.50
55424;BME280;41294;42.666;23.350;2022-08-06T12:34:01;94683.72;;;33.81;32.71
55424;BME280;41294;42.666;23.350;2022-08-06T12:36:28;94676.00;;;33.66;32.62
55424;BME280;41294;42.666;23.350;2022-08-06T12:38:57;94679.69;;;33.59;32.34
55424;BME280;41294;42.666;23.350;2022-08-06T12:41:22;94678.94;;;33.82;32.33
55424;BME280;41294;42.666;23.350;2022-08-06T12:43:48;94669.69;;;33.75;32.06
55424;BME280;41294;42.666;23.350;2022-08-06T12:46:14;94675.91;;;34.24;31.63
55424;BME280;41294;42.666;23.350;2022-08-06T12:48:45;94667.78;;;34.62;31.23
55424;BME280;41294;42.666;23.350;2022-08-06T12:51:13;94670.75;;;34.66;31.18
55424;BME280;41294;42.666;23.350;2022-08-06T12:53:47;94669.88;;;34.14;32.24
55424;BME280;41294;42.666;23.350;2022-08-06T12:56:13;94668.19;;;34.20;32.22
55424;BME280;41294;42.666;23.350;2022-08-06T12:58:40;94670.66;;;33.68;32.42
55424;BME280;41294;42.666;23.350;2022-08-06T13:01:08;94659.03;;;33.11;32.96
55424;BME280;41294;42.666;23.350;2022-08-06T13:03:38;94662.28;;;32.98;34.17
55424;BME280;41294;42.666;23.350;2022-08-06T13:06:05;94663.69;;;32.76;33.87
55424;BME280;41294;42.666;23.350;2022-08-06T13:08:33;94667.88;;;32.56;34.68
55424;BME280;41294;42.666;23.350;2022-08-06T13:10:58;94657.06;;;32.47;35.22
55424;BME280;41294;42.666;23.350;2022-08-06T13:13:36;94659.19;;;32.80;34.63
55424;BME280;41294;42.666;23.350;2022-08-06T13:16:10;94663.72;;;32.99;33.47
55424;BME280;41294;42.666;23.350;2022-08-06T13:18:37;94652.78;;;32.99;34.31
55424;BME280;41294;42.666;23.350;2022-08-06T13:21:16;94657.47;;;33.19;33.24
55424;BME280;41294;42.666;23.350;2022-08-06T13:23:48;94644.47;;;32.97;33.32
55424;BME280;41294;42.666;23.350;2022-08-06T13:31:35;94653.81;;;33.60;32.39
55424;BME280;41294;42.666;23.350;2022-08-06T13:34:10;94654.69;;;33.88;32.02
55424;BME280;41294;42.666;23.350;2022-08-06T13:36:37;94651.16;;;33.74;31.84
55424;BME280;41294;42.666;23.350;2022-08-06T13:39:29;94654.41;;;34.18;31.62
55424;BME280;41294;42.666;23.350;2022-08-06T13:42:07;94648.72;;;34.14;31.70
55424;BME280;41294;42.666;23.350;2022-08-06T13:44:38;94643.69;;;33.63;33.25
55424;BME280;41294;42.666;23.350;2022-08-06T13:47:05;94637.63;;;33.53;32.82
55424;BME280;41294;42.666;23.350;2022-08-06T13:49:32;94640.44;;;32.98;33.75
55424;BME280;41294;42.666;23.350;2022-08-06T13:51:58;94639.84;;;32.44;33.89
55424;BME280;41294;42.666;23.350;2022-08-06T13:54:25;94631.75;;;32.35;33.65
55424;BME280;41294;42.666;23.350;2022-08-06T13:56:52;94635.28;;;32.58;33.14
55424;BME280;41294;42.666;23.350;2022-08-06T13:59:19;94627.63;;;32.89;32.55
55424;BME280;41294;42.666;23.350;2022-08-06T14:01:45;94628.31;;;32.78;32.83
55424;BME280;41294;42.666;23.350;2022-08-06T14:04:16;94637.19;;;32.23;32.59
55424;BME280;41294;42.666;23.350;2022-08-06T14:06:42;94634.19;;;31.98;32.61
55424;BME280;41294;42.666;23.350;2022-08-06T14:09:08;94640.28;;;32.08;32.86